Time;durP1;ratioP1;P1;durP2;ratioP2;P2;SDS_P1;SDS_P2;PMS_P1;PMS_P2;Temp;Humidity;BMP_temperature;BMP_pressure;BME280_temperature;BME280_humidity;BME280_pressure;Samples;Min_cycle;Max_cycle;Signal;HPM_P1;HPM_P2
2022/11/13 00:01:15;;;;;;;12.57;8.95;;;20.70;47.30;;;;;;5028665;28;20376;-64
2022/11/13 00:03:42;;;;;;;10.20;7.93;;;20.70;47.40;;;;;;5030432;28;20495;-64
2022/11/13 00:06:10;;;;;;;10.20;8.43;;;20.70;47.30;;;;;;5030346;28;20584;-64
2022/11/13 00:08:37;;;;;;;11.48;8.73;;;20.70;47.40;;;;;;5029967;28;20053;-63
2022/11/13 00:11:06;;;;;;;12.32;8.45;;;20.70;47.40;;;;;;5012603;28;20045;-64
2022/11/13 00:13:34;;;;;;;10.25;8.07;;;20.70;47.90;;;;;;5030323;28;20397;-64
2022/11/13 00:16:04;;;;;;;12.77;9.02;;;20.70;47.30;;;;;;5030323;28;20346;-64
2022/11/13 00:18:34;;;;;;;12.82;8.52;;;20.70;47.30;;;;;;5029976;28;20045;-64
2022/11/13 00:21:13;;;;;;;13.13;8.23;;;20.70;47.30;;;;;;5030155;28;20052;-64
2022/11/13 00:23:41;;;;;;;10.68;8.05;;;20.70;47.30;;;;;;5030197;28;20077;-64
2022/11/13 00:26:14;;;;;;;11.73;8.57;;;20.70;47.40;;;;;;5030047;28;20464;-64
2022/11/13 00:28:41;;;;;;;9.73;7.85;;;20.70;47.50;;;;;;5030123;28;20049;-64
2022/11/13 00:31:11;;;;;;;11.02;8.02;;;20.70;47.50;;;;;;5029947;28;20056;-64
2022/11/13 00:33:38;;;;;;;10.00;7.88;;;20.70;47.50;;;;;;5007903;28;20057;-64
2022/11/13 00:36:27;;;;;;;10.85;8.23;;;20.70;47.50;;;;;;5030284;28;20041;-64
2022/11/13 00:38:54;;;;;;;11.20;8.50;;;20.70;47.60;;;;;;5028990;28;20559;-63
2022/11/13 00:41:22;;;;;;;11.57;8.00;;;20.70;47.60;;;;;;5029769;28;20496;-63
2022/11/13 00:43:50;;;;;;;11.07;7.47;;;20.70;47.60;;;;;;5029447;28;20053;-64
2022/11/13 00:46:17;;;;;;;11.57;8.15;;;20.70;47.60;;;;;;5029685;28;20045;-64
2022/11/13 00:48:44;;;;;;;10.98;8.30;;;20.70;47.50;;;;;;5029803;28;20076;-64
2022/11/13 00:51:11;;;;;;;11.00;7.65;;;20.70;47.50;;;;;;5029658;28;20049;-64
2022/11/13 00:53:38;;;;;;;9.52;7.35;;;20.70;47.50;;;;;;5029536;28;20061;-64
2022/11/13 00:56:05;;;;;;;10.60;8.10;;;20.70;47.40;;;;;;5029377;28;20403;-64
2022/11/13 00:58:32;;;;;;;11.05;7.32;;;20.70;47.30;;;;;;5029036;28;20045;-64
2022/11/13 01:01:10;;;;;;;9.07;7.10;;;20.70;47.40;;;;;;5029266;28;20052;-63
2022/11/13 01:03:38;;;;;;;11.02;7.45;;;20.70;47.30;;;;;;5029659;28;20077;-64
2022/11/13 01:06:12;;;;;;;11.13;7.88;;;20.70;47.30;;;;;;5029085;28;20061;-66
2022/11/13 01:08:39;;;;;;;10.10;7.75;;;20.70;47.30;;;;;;5023921;28;20416;-63
2022/11/13 01:11:13;;;;;;;9.52;7.55;;;20.70;47.40;;;;;;5029057;28;20045;-64
2022/11/13 01:13:43;;;;;;;9.18;7.07;;;20.70;47.30;;;;;;5029582;28;20648;-64
2022/11/13 01:16:12;;;;;;;10.82;8.23;;;20.70;47.40;;;;;;5028941;28;20058;-64
2022/11/13 01:18:40;;;;;;;10.93;7.90;;;20.70;47.30;;;;;;5028654;28;20050;-64
2022/11/13 01:21:10;;;;;;;8.48;6.75;;;20.70;47.30;;;;;;5028957;28;20072;-64
2022/11/13 01:23:38;;;;;;;;;;;20.70;47.30;;;;;;5012652;28;20059;-63
2022/11/13 01:26:21;;;;;;;9.38;6.75;;;20.70;47.30;;;;;;5029168;28;20310;-64
2022/11/13 01:28:48;;;;;;;8.95;7.43;;;20.70;47.30;;;;;;5028799;28;20049;-64
2022/11/13 01:31:18;;;;;;;10.30;7.45;;;20.70;47.30;;;;;;5025070;28;20400;-64
2022/11/13 01:33:46;;;;;;;8.93;6.95;;;20.70;47.30;;;;;;5009007;28;20053;-64
2022/11/13 01:36:16;;;;;;;8.93;6.93;;;20.70;47.40;;;;;;4976042;28;20053;-64
2022/11/13 01:38:44;;;;;;;8.27;6.75;;;20.70;47.40;;;;;;5007434;28;20050;-63
2022/11/13 01:41:25;;;;;;;10.70;7.95;;;20.70;47.40;;;;;;5005999;28;20149;-65
2022/11/13 01:43:53;;;;;;;9.50;7.35;;;20.70;47.40;;;;;;4991640;28;20100;-63
2022/11/13 01:46:34;;;;;;;8.35;7.05;;;20.70;47.30;;;;;;5008785;28;20046;-64
2022/11/13 01:49:33;;;;;;;10.35;7.60;;;20.70;47.30;;;;;;5007869;28;20050;-63
2022/11/13 01:52:03;;;;;;;8.02;6.40;;;20.60;47.30;;;;;;4996155;28;20420;-64
2022/11/13 01:54:32;;;;;;;;;;;20.70;47.40;;;;;;4992007;28;20261;-64
2022/11/13 01:57:00;;;;;;;8.55;6.60;;;20.70;47.50;;;;;;5008813;28;19922;-63
2022/11/13 01:59:32;;;;;;;8.90;6.60;;;20.70;47.50;;;;;;5007889;28;20046;-64
2022/11/13 02:02:00;;;;;;;6.57;5.78;;;20.70;47.50;;;;;;4991633;28;20056;-63
2022/11/13 02:04:28;;;;;;;9.05;6.68;;;20.60;47.40;;;;;;5007566;28;20136;-64
2022/11/13 02:06:59;;;;;;;11.90;7.25;;;20.70;47.50;;;;;;4991353;28;20050;-63
2022/11/13 02:09:39;;;;;;;9.00;6.18;;;20.70;47.50;;;;;;5027371;28;20049;-64
2022/11/13 02:12:12;;;;;;;9.33;6.67;;;20.60;47.40;;;;;;5006196;28;20056;-63
2022/11/13 02:14:43;;;;;;;8.32;6.50;;;20.60;47.40;;;;;;5027640;28;20286;-63
2022/11/13 02:17:15;;;;;;;7.90;6.60;;;20.60;47.40;;;;;;5028841;28;20057;-63
2022/11/13 02:19:47;;;;;;;8.95;5.63;;;20.60;47.40;;;;;;5010758;28;20076;-63
2022/11/13 02:22:38;;;;;;;9.55;6.85;;;20.70;47.50;;;;;;5028235;28;20080;-63
2022/11/13 02:25:06;;;;;;;9.52;6.68;;;20.60;47.40;;;;;;5028125;28;20495;-63
2022/11/13 02:27:43;;;;;;;9.10;7.10;;;20.70;47.50;;;;;;5028000;28;20038;-64
2022/11/13 02:30:13;;;;;;;7.95;6.20;;;20.60;47.50;;;;;;5027969;28;20270;-63
2022/11/13 02:32:44;;;;;;;8.35;6.40;;;20.60;47.50;;;;;;5027981;28;20136;-63
2022/11/13 02:35:15;;;;;;;7.60;6.23;;;20.60;47.60;;;;;;5027729;28;20101;-64
2022/11/13 02:37:42;;;;;;;8.70;6.47;;;20.60;47.60;;;;;;5027872;28;20466;-64
2022/11/13 02:40:09;;;;;;;7.15;5.80;;;20.60;47.60;;;;;;5027843;28;20046;-63
2022/11/13 02:42:36;;;;;;;6.60;5.57;;;20.60;47.60;;;;;;5028094;28;20054;-63
2022/11/13 02:45:05;;;;;;;7.47;5.97;;;20.60;47.70;;;;;;5007654;28;20503;-64
2022/11/13 02:47:32;;;;;;;7.63;5.75;;;20.60;47.70;;;;;;5028026;28;20057;-64
2022/11/13 02:49:59;;;;;;;6.90;5.63;;;20.60;47.70;;;;;;5027786;28;20088;-63
2022/11/13 02:52:28;;;;;;;8.25;5.60;;;20.60;47.70;;;;;;5027563;28;20045;-63
2022/11/13 02:54:55;;;;;;;7.78;6.30;;;20.60;47.70;;;;;;5028075;28;20124;-63
2022/11/13 02:57:22;;;;;;;6.53;5.68;;;20.60;47.70;;;;;;5016300;28;20398;-64
2022/11/13 02:59:50;;;;;;;7.10;5.60;;;20.60;47.60;;;;;;4990709;28;20053;-64
2022/11/13 03:02:17;;;;;;;8.07;5.90;;;20.60;47.60;;;;;;4998743;28;20053;-63
2022/11/13 03:04:45;;;;;;;7.10;5.60;;;20.60;47.50;;;;;;5031407;28;20495;-63
2022/11/13 03:07:32;;;;;;;7.35;5.70;;;20.60;47.50;;;;;;5031615;28;20374;-64
2022/11/13 03:09:59;;;;;;;6.85;5.55;;;20.60;47.50;;;;;;5031229;28;20060;-63
2022/11/13 03:12:26;;;;;;;6.35;4.93;;;20.60;47.40;;;;;;5008468;28;20052;-64
2022/11/13 03:14:53;;;;;;;7.35;5.43;;;20.60;47.40;;;;;;5011665;28;20052;-63
2022/11/13 03:17:20;;;;;;;5.97;5.20;;;20.60;47.40;;;;;;5026207;28;20049;-63
2022/11/13 03:19:47;;;;;;;5.60;5.10;;;20.60;47.40;;;;;;5031447;28;20145;-64
2022/11/13 03:22:14;;;;;;;6.50;5.28;;;20.60;47.40;;;;;;5031196;28;20041;-63
2022/11/13 03:24:41;;;;;;;6.15;5.03;;;20.60;47.40;;;;;;5031189;28;20075;-64
2022/11/13 03:27:08;;;;;;;6.38;5.32;;;20.60;47.40;;;;;;5031406;28;20057;-64
2022/11/13 03:29:35;;;;;;;6.78;5.57;;;20.60;47.40;;;;;;5029804;28;20045;-64
2022/11/13 03:32:02;;;;;;;6.85;5.47;;;20.60;47.40;;;;;;5030955;28;20046;-63
2022/11/13 03:34:29;;;;;;;5.88;4.85;;;20.60;47.50;;;;;;5031145;28;20053;-65
2022/11/13 03:36:56;;;;;;;6.88;5.30;;;20.60;47.50;;;;;;5030499;28;20045;-64
2022/11/13 03:39:24;;;;;;;6.88;5.25;;;20.60;47.50;;;;;;5031171;28;20056;-63
2022/11/13 03:41:51;;;;;;;5.65;5.03;;;20.60;47.50;;;;;;5030370;28;20511;-64
2022/11/13 03:44:18;;;;;;;5.13;4.63;;;20.60;47.50;;;;;;5013533;28;20684;-64
2022/11/13 03:46:45;;;;;;;5.40;4.70;;;20.60;47.50;;;;;;5030625;28;20049;-64
2022/11/13 03:49:12;;;;;;;7.47;5.38;;;20.60;47.50;;;;;;5026357;28;20049;-63
2022/11/13 03:51:39;;;;;;;6.93;4.97;;;20.60;47.50;;;;;;5030555;28;20080;-64
2022/11/13 03:54:06;;;;;;;5.70;4.90;;;20.60;47.50;;;;;;5013448;28;20403;-63
2022/11/13 03:56:33;;;;;;;6.38;5.28;;;20.60;47.50;;;;;;5030176;28;20057;-64
2022/11/13 03:59:00;;;;;;;5.20;4.40;;;20.60;47.50;;;;;;5030394;28;20246;-64
2022/11/13 04:01:27;;;;;;;5.75;4.90;;;20.60;47.50;;;;;;5029705;28;20053;-64
2022/11/13 04:03:54;;;;;;;6.60;4.90;;;20.60;47.50;;;;;;5030120;28;20558;-64
2022/11/13 04:06:21;;;;;;;5.95;4.57;;;20.60;47.50;;;;;;5030289;28;20045;-63
2022/11/13 04:08:48;;;;;;;6.70;5.28;;;20.60;47.50;;;;;;5030289;28;20056;-64
2022/11/13 04:11:15;;;;;;;6.47;4.50;;;20.60;47.50;;;;;;5030149;28;20053;-63
2022/11/13 04:13:42;;;;;;;6.82;4.78;;;20.60;47.50;;;;;;5029860;28;20053;-63
2022/11/13 04:16:09;;;;;;;5.07;4.38;;;20.60;47.50;;;;;;5030008;28;20049;-64
2022/11/13 04:18:36;;;;;;;7.30;4.57;;;20.60;47.50;;;;;;5012771;28;20049;-64
2022/11/13 04:21:05;;;;;;;7.15;4.82;;;20.60;47.50;;;;;;5028511;28;20045;-63
2022/11/13 04:23:32;;;;;;;5.03;3.90;;;20.50;47.50;;;;;;5009130;28;20057;-64
2022/11/13 04:25:59;;;;;;;5.35;4.30;;;20.50;47.50;;;;;;5030212;28;20053;-64
2022/11/13 04:28:26;;;;;;;5.03;4.20;;;20.50;47.50;;;;;;5030258;28;20045;-64
2022/11/13 04:30:54;;;;;;;6.05;4.78;;;20.50;47.90;;;;;;5029559;28;20049;-64
2022/11/13 04:33:22;;;;;;;5.40;4.20;;;20.50;47.50;;;;;;5030114;28;20045;-64
2022/11/13 04:35:49;;;;;;;5.50;4.75;;;20.50;47.50;;;;;;5029657;28;20050;-63
2022/11/13 04:38:16;;;;;;;4.93;4.43;;;20.50;48.10;;;;;;5012115;28;20048;-64
2022/11/13 04:40:43;;;;;;;4.20;3.80;;;20.50;47.50;;;;;;5012078;28;20057;-64
2022/11/13 04:43:10;;;;;;;4.13;3.47;;;20.50;47.50;;;;;;5029570;28;20072;-63
2022/11/13 04:45:37;;;;;;;5.15;4.65;;;20.50;47.60;;;;;;5029422;28;20064;-63
2022/11/13 04:48:04;;;;;;;4.60;3.97;;;20.50;47.60;;;;;;5029587;28;20072;-63
2022/11/13 04:50:31;;;;;;;5.30;4.55;;;20.50;47.60;;;;;;5011698;28;20049;-63
2022/11/13 04:52:58;;;;;;;4.40;3.90;;;20.50;47.60;;;;;;5007425;28;20057;-64
2022/11/13 04:55:25;;;;;;;4.20;3.80;;;20.50;47.70;;;;;;5028812;28;20081;-64
2022/11/13 04:57:54;;;;;;;4.35;3.95;;;20.50;47.70;;;;;;5011355;28;20056;-64
2022/11/13 05:00:21;;;;;;;4.32;3.67;;;20.50;47.70;;;;;;5029136;28;20103;-63
2022/11/13 05:02:48;;;;;;;4.78;4.25;;;20.50;47.70;;;;;;5016103;28;20046;-64
2022/11/13 05:05:16;;;;;;;4.78;4.38;;;20.50;47.70;;;;;;5009118;28;20488;-63
2022/11/13 05:07:43;;;;;;;7.18;4.28;;;20.50;47.70;;;;;;5009549;28;20052;-64
2022/11/13 05:10:10;;;;;;;4.38;3.97;;;20.50;48.30;;;;;;5012056;28;20049;-64
2022/11/13 05:12:37;;;;;;;4.55;3.90;;;20.50;47.70;;;;;;5028863;28;20073;-64
2022/11/13 05:15:05;;;;;;;4.80;3.80;;;20.50;47.60;;;;;;5011803;28;20053;-64
2022/11/13 05:17:32;;;;;;;4.22;3.30;;;20.50;47.60;;;;;;5011461;28;20410;-64
2022/11/13 05:19:59;;;;;;;4.90;3.92;;;20.50;47.60;;;;;;5028592;28;20510;-64
2022/11/13 05:22:26;;;;;;;3.95;3.30;;;20.50;47.50;;;;;;5028816;28;20057;-64
2022/11/13 05:24:53;;;;;;;3.88;3.58;;;20.50;47.50;;;;;;5029319;28;20050;-64
2022/11/13 05:27:20;;;;;;;5.78;4.47;;;20.50;47.50;;;;;;5024145;28;20050;-63
2022/11/13 05:29:47;;;;;;;5.20;4.15;;;20.50;47.50;;;;;;5029293;28;20045;-65
2022/11/13 05:32:14;;;;;;;4.45;4.05;;;20.50;47.50;;;;;;5028707;28;20065;-64
2022/11/13 05:34:41;;;;;;;4.72;3.78;;;20.50;47.50;;;;;;5029270;28;20045;-63
2022/11/13 05:37:08;;;;;;;4.35;3.90;;;20.50;47.40;;;;;;5011236;28;20056;-64
2022/11/13 05:39:35;;;;;;;5.82;4.18;;;20.50;47.20;;;;;;5028494;28;20051;-63
2022/11/13 05:42:02;;;;;;;4.88;4.07;;;20.50;47.10;;;;;;5028660;28;20414;-64
2022/11/13 05:44:29;;;;;;;5.85;4.30;;;20.50;47.00;;;;;;5028561;28;20056;-64
2022/11/13 05:46:56;;;;;;;4.90;4.30;;;20.50;46.90;;;;;;4995046;28;20477;-64
2022/11/13 05:49:23;;;;;;;4.68;4.28;;;20.50;46.80;;;;;;5028316;28;20053;-64
2022/11/13 05:51:53;;;;;;;5.38;4.05;;;20.50;46.70;;;;;;5029163;28;20049;-65
2022/11/13 05:54:20;;;;;;;5.28;4.18;;;20.50;46.70;;;;;;5028381;28;20052;-63
2022/11/13 05:56:47;;;;;;;4.35;3.95;;;20.50;46.70;;;;;;5028638;28;20049;-63
2022/11/13 05:59:14;;;;;;;5.15;4.60;;;20.50;46.70;;;;;;5023508;28;20487;-63
2022/11/13 06:01:41;;;;;;;5.75;4.53;;;20.50;46.70;;;;;;5028028;28;20053;-63
2022/11/13 06:04:09;;;;;;;4.90;4.40;;;20.50;46.70;;;;;;5010697;28;20095;-64
2022/11/13 06:06:36;;;;;;;5.93;4.65;;;20.40;46.70;;;;;;5028676;28;20061;-63
2022/11/13 06:09:05;;;;;;;3.83;3.53;;;20.40;46.60;;;;;;5027550;28;20149;-64
2022/11/13 06:11:32;;;;;;;4.80;4.35;;;20.40;46.60;;;;;;5028598;28;20053;-63
2022/11/13 06:14:00;;;;;;;4.53;4.13;;;20.40;46.50;;;;;;5028244;28;20052;-64
2022/11/13 06:16:33;;;;;;;4.38;3.97;;;20.40;46.50;;;;;;5028661;28;20061;-63
2022/11/13 06:19:04;;;;;;;4.07;3.67;;;20.40;46.50;;;;;;5028019;28;20054;-64
2022/11/13 06:21:33;;;;;;;4.63;3.97;;;20.40;46.40;;;;;;5028426;28;20042;-64
2022/11/13 06:24:01;;;;;;;5.07;4.57;;;20.40;46.40;;;;;;5010473;28;20052;-63
2022/11/13 06:26:31;;;;;;;4.78;4.28;;;20.40;46.30;;;;;;5028049;28;20055;-64
2022/11/13 06:28:59;;;;;;;4.43;4.03;;;20.40;46.20;;;;;;5027529;28;20128;-64
2022/11/13 06:31:29;;;;;;;4.00;3.58;;;20.40;46.20;;;;;;5023548;28;20096;-63
2022/11/13 06:33:59;;;;;;;4.47;4.07;;;20.40;46.10;;;;;;5028105;28;20056;-64
2022/11/13 06:36:29;;;;;;;4.15;3.78;;;20.40;46.10;;;;;;5030354;28;20053;-63
2022/11/13 06:38:57;;;;;;;3.88;3.58;;;20.40;46.10;;;;;;5032529;28;20454;-63
2022/11/13 06:41:28;;;;;;;4.68;4.03;;;20.40;46.00;;;;;;5032461;28;20229;-64
2022/11/13 06:43:57;;;;;;;4.20;3.50;;;20.50;46.00;;;;;;5014400;28;20050;-63
2022/11/13 06:46:29;;;;;;;3.90;3.50;;;20.50;45.90;;;;;;5031970;28;20041;-63
2022/11/13 06:48:57;;;;;;;4.72;4.20;;;20.50;45.90;;;;;;5031809;28;20056;-63
2022/11/13 06:51:27;;;;;;;4.13;3.72;;;20.50;45.80;;;;;;5031972;28;20060;-64
2022/11/13 06:53:54;;;;;;;;;;;20.50;45.80;;;;;;5031597;28;20574;-63
2022/11/13 06:56:21;;;;;;;6.38;4.65;;;20.50;45.70;;;;;;5047214;28;19929;-64
2022/11/13 06:58:48;;;;;;;5.45;4.22;;;20.50;45.70;;;;;;5031669;28;20391;-63
2022/11/13 07:01:19;;;;;;;5.00;4.50;;;20.50;45.60;;;;;;5031778;28;20125;-63
2022/11/13 07:03:46;;;;;;;6.43;5.05;;;20.50;45.60;;;;;;5027030;28;20510;-64
2022/11/13 07:06:17;;;;;;;5.32;4.78;;;20.60;45.60;;;;;;5032012;28;20042;-63
2022/11/13 07:08:45;;;;;;;5.40;4.55;;;20.60;45.50;;;;;;5031410;28;20056;-63
2022/11/13 07:11:17;;;;;;;5.57;4.55;;;20.60;45.50;;;;;;5031488;28;20049;-64
2022/11/13 07:13:44;;;;;;;5.00;4.50;;;20.60;45.40;;;;;;5030980;28;20041;-64
2022/11/13 07:16:12;;;;;;;6.93;5.10;;;20.60;45.40;;;;;;5031623;28;20053;-64
2022/11/13 07:18:51;;;;;;;5.80;4.93;;;20.60;45.60;;;;;;5031456;28;20075;-63
2022/11/13 07:21:18;;;;;;;5.70;4.85;;;20.60;45.20;;;;;;5031265;28;20467;-63
2022/11/13 07:23:48;;;;;;;5.45;4.93;;;20.70;45.30;;;;;;4994584;28;20488;-63
2022/11/13 07:26:15;;;;;;;6.00;5.00;;;20.70;45.20;;;;;;4994501;28;20057;-64
2022/11/13 07:28:43;;;;;;;6.47;4.90;;;20.70;45.10;;;;;;5011362;28;20049;-63
2022/11/13 07:31:12;;;;;;;6.35;5.32;;;20.70;45.10;;;;;;5026279;28;20142;-63
2022/11/13 07:33:39;;;;;;;5.38;4.78;;;20.80;45.10;;;;;;5030916;28;20049;-63
2022/11/13 07:36:07;;;;;;;6.97;5.30;;;20.80;45.00;;;;;;5008871;28;20061;-64
2022/11/13 07:38:34;;;;;;;6.47;5.43;;;20.80;44.90;;;;;;5031134;28;20049;-63
2022/11/13 07:41:02;;;;;;;6.05;5.35;;;20.80;44.90;;;;;;5030515;28;20045;-64
2022/11/13 07:43:29;;;;;;;7.03;5.28;;;20.80;44.80;;;;;;5012640;28;20495;-64
2022/11/13 07:45:58;;;;;;;6.63;5.20;;;20.80;44.80;;;;;;5030568;28;20064;-64
2022/11/13 07:48:26;;;;;;;6.90;5.35;;;20.80;44.80;;;;;;5030029;28;20065;-63
2022/11/13 07:50:54;;;;;;;6.28;5.20;;;20.80;44.70;;;;;;5030130;28;20050;-64
2022/11/13 07:53:22;;;;;;;7.55;5.60;;;20.80;44.70;;;;;;5013080;28;20096;-64
2022/11/13 07:55:49;;;;;;;6.43;4.97;;;20.80;44.60;;;;;;5030325;28;20392;-64
2022/11/13 07:58:16;;;;;;;6.50;5.55;;;20.80;44.60;;;;;;5030583;28;20052;-64
2022/11/13 08:00:43;;;;;;;6.43;5.60;;;20.90;44.60;;;;;;5030557;28;20056;-63
2022/11/13 08:03:15;;;;;;;6.38;5.20;;;20.90;44.50;;;;;;5030429;28;20538;-63
2022/11/13 08:05:42;;;;;;;6.63;5.15;;;20.90;44.50;;;;;;5030069;28;20283;-64
2022/11/13 08:08:13;;;;;;;5.85;5.25;;;20.90;44.50;;;;;;5010136;28;20061;-64
2022/11/13 08:10:41;;;;;;;6.97;5.65;;;20.90;44.40;;;;;;5010268;28;20136;-63
2022/11/13 08:13:09;;;;;;;6.25;4.93;;;20.90;44.30;;;;;;5010686;28;20046;-63
2022/11/13 08:15:37;;;;;;;8.20;5.82;;;20.90;44.30;;;;;;5010858;28;20408;-63
2022/11/13 08:18:05;;;;;;;6.60;5.15;;;21.00;44.30;;;;;;5010700;28;20046;-64
2022/11/13 08:20:32;;;;;;;6.32;5.47;;;21.00;44.20;;;;;;5030075;28;20050;-63
2022/11/13 08:23:01;;;;;;;6.68;5.25;;;21.00;44.20;;;;;;5030460;28;20490;-64
2022/11/13 08:25:30;;;;;;;5.82;5.05;;;21.00;44.20;;;;;;5012226;28;20060;-64
2022/11/13 08:27:58;;;;;;;7.03;5.75;;;21.00;44.20;;;;;;5012290;28;20045;-64
2022/11/13 08:30:26;;;;;;;7.35;5.05;;;21.00;44.20;;;;;;5029659;28;20446;-64
2022/11/13 08:32:54;;;;;;;6.63;5.28;;;21.00;44.20;;;;;;5026551;28;20044;-63
2022/11/13 08:35:21;;;;;;;6.47;5.45;;;21.00;44.20;;;;;;5022863;28;20412;-64
2022/11/13 08:38:02;;;;;;;7.20;6.22;;;21.10;44.20;;;;;;5009951;28;20049;-63
2022/11/13 08:40:29;;;;;;;7.47;6.20;;;21.10;44.20;;;;;;5005026;28;20042;-64
2022/11/13 08:43:00;;;;;;;7.00;5.45;;;21.10;44.20;;;;;;5009925;28;20050;-63
2022/11/13 08:45:29;;;;;;;7.00;5.45;;;21.10;44.20;;;;;;5010142;28;20476;-64
2022/11/13 08:48:01;;;;;;;6.13;5.28;;;21.10;44.20;;;;;;5008934;28;20070;-63
2022/11/13 08:50:28;;;;;;;7.60;5.63;;;21.10;44.20;;;;;;4998875;28;20041;-64
2022/11/13 08:52:57;;;;;;;7.00;5.10;;;21.10;44.20;;;;;;5019666;28;20054;-63
2022/11/13 08:55:24;;;;;;;7.05;5.85;;;21.10;44.20;;;;;;5023156;28;20496;-64
2022/11/13 08:57:52;;;;;;;6.72;5.55;;;21.10;44.20;;;;;;5029026;28;20049;-64
2022/11/13 09:00:20;;;;;;;6.25;5.13;;;21.10;44.20;;;;;;5012310;28;20042;-64
2022/11/13 09:02:47;;;;;;;7.47;5.60;;;21.20;44.20;;;;;;5028324;28;20046;-64
2022/11/13 09:05:14;;;;;;;11.18;5.65;;;21.20;44.20;;;;;;5029332;28;20049;-64
2022/11/13 09:07:41;;;;;;;8.13;5.97;;;21.20;44.20;;;;;;5016765;28;20519;-63
2022/11/13 09:10:08;;;;;;;7.28;5.47;;;21.20;44.30;;;;;;4988499;28;20050;-63
2022/11/13 09:12:35;;;;;;;5.85;5.03;;;21.20;44.30;;;;;;5008830;28;20264;-64
2022/11/13 09:15:02;;;;;;;8.63;6.07;;;21.20;44.30;;;;;;5009139;28;20045;-64
2022/11/13 09:17:29;;;;;;;8.10;6.13;;;21.20;44.30;;;;;;5008103;28;20054;-64
2022/11/13 09:19:56;;;;;;;8.00;5.60;;;21.20;44.30;;;;;;5009150;28;20076;-64
2022/11/13 09:22:29;;;;;;;7.97;5.50;;;21.30;44.40;;;;;;5009256;28;20061;-63
2022/11/13 09:24:56;;;;;;;8.55;5.53;;;21.30;44.40;;;;;;5009341;28;20050;-63
2022/11/13 09:27:24;;;;;;;11.18;6.00;;;21.30;44.40;;;;;;5009649;28;20050;-64
2022/11/13 09:29:51;;;;;;;8.30;5.80;;;21.30;44.40;;;;;;5009154;28;20068;-63
2022/11/13 09:32:21;;;;;;;;;;;21.30;44.40;;;;;;4992841;28;20045;-64
2022/11/13 09:34:48;;;;;;;8.52;6.18;;;21.30;44.40;;;;;;5008990;28;20406;-63
2022/11/13 09:37:15;;;;;;;9.40;5.90;;;21.30;44.40;;;;;;5008953;28;20046;-63
2022/11/13 09:39:42;;;;;;;7.32;5.30;;;21.30;44.40;;;;;;5009222;28;20404;-64
2022/11/13 09:42:23;;;;;;;12.75;5.55;;;21.40;44.50;;;;;;4986480;28;20049;-63
2022/11/13 09:44:53;;;;;;;;;;;21.40;44.50;;;;;;5009225;28;20049;-63
2022/11/13 09:47:29;;;;;;;8.40;5.90;;;21.40;44.40;;;;;;5008706;28;20269;-63
2022/11/13 09:50:05;;;;;;;11.75;5.45;;;21.40;44.40;;;;;;5009016;28;20141;-64
2022/11/13 09:52:40;;;;;;;8.32;5.63;;;21.40;44.40;;;;;;5008588;28;20063;-64
2022/11/13 09:55:16;;;;;;;6.55;5.30;;;21.50;44.50;;;;;;5009017;28;20042;-63
2022/11/13 09:58:09;;;;;;;8.77;5.85;;;21.50;45.00;;;;;;5009031;28;20058;-64
2022/11/13 10:00:36;;;;;;;7.63;5.65;;;21.50;44.40;;;;;;5008474;28;20432;-64
2022/11/13 10:03:30;;;;;;;7.72;5.32;;;21.50;44.40;;;;;;5027896;28;20045;-63
2022/11/13 10:06:51;;;;;;;9.30;5.75;;;21.50;44.40;;;;;;5017893;28;20634;-64
2022/11/13 10:09:35;;;;;;;8.57;6.07;;;21.50;44.40;;;;;;5008634;28;20444;-64
2022/11/13 10:12:06;;;;;;;13.98;6.20;;;21.50;44.30;;;;;;5007757;28;20293;-63
2022/11/13 10:14:35;;;;;;;;;;;21.50;44.30;;;;;;5008821;28;20053;-65
2022/11/13 10:17:40;;;;;;;7.93;5.30;;;21.50;44.90;;;;;;5014560;28;19930;-64
2022/11/13 10:20:17;;;;;;;12.43;6.18;;;21.50;44.20;;;;;;5007625;28;20074;-63
2022/11/13 10:22:57;;;;;;;11.75;6.50;;;21.60;44.20;;;;;;5008647;28;20053;-63
2022/11/13 10:25:32;;;;;;;10.40;5.82;;;21.60;44.20;;;;;;5008789;28;20477;-64
2022/11/13 10:28:00;;;;;;;8.55;5.90;;;21.60;44.20;;;;;;5008067;28;20061;-63
2022/11/13 10:30:48;;;;;;;7.72;5.53;;;21.60;44.20;;;;;;5008043;28;20050;-64
2022/11/13 10:33:21;;;;;;;7.63;5.60;;;21.60;44.20;;;;;;5008834;28;20270;-63
2022/11/13 10:36:16;;;;;;;7.95;5.72;;;21.60;44.20;;;;;;5008621;28;20455;-63
2022/11/13 10:38:49;;;;;;;8.82;5.78;;;21.60;44.20;;;;;;5008306;28;20046;-63
2022/11/13 10:41:20;;;;;;;6.80;5.38;;;21.60;44.10;;;;;;5008839;28;20088;-64
2022/11/13 10:43:55;;;;;;;7.05;5.55;;;21.60;44.10;;;;;;5008448;28;20054;-63
2022/11/13 10:46:28;;;;;;;10.18;5.72;;;21.60;44.10;;;;;;5003723;28;20068;-64
2022/11/13 10:48:56;;;;;;;7.65;5.30;;;21.70;44.10;;;;;;4991077;28;20060;-63
2022/11/13 10:51:27;;;;;;;9.10;6.38;;;21.70;44.10;;;;;;4990805;28;20393;-63
2022/11/13 10:53:56;;;;;;;7.32;5.93;;;21.70;44.10;;;;;;5007470;28;20046;-64
2022/11/13 10:56:33;;;;;;;8.65;6.00;;;21.70;44.10;;;;;;4990023;28;20054;-63
2022/11/13 10:59:13;;;;;;;7.05;5.53;;;21.70;44.10;;;;;;5007818;28;20072;-64
2022/11/13 11:01:41;;;;;;;7.20;5.28;;;21.70;44.10;;;;;;5008275;28;20061;-64
2022/11/13 11:04:23;;;;;;;6.47;5.55;;;21.80;44.10;;;;;;5008179;28;20052;-63
2022/11/13 11:06:50;;;;;;;7.13;5.63;;;21.80;44.10;;;;;;5008323;28;20046;-64
2022/11/13 11:09:40;;;;;;;8.90;5.63;;;21.80;44.10;;;;;;4993487;28;20068;-63
2022/11/13 11:12:20;;;;;;;8.07;5.50;;;21.80;44.10;;;;;;5008113;28;20042;-64
2022/11/13 11:15:08;;;;;;;7.07;5.30;;;21.80;44.10;;;;;;5008004;28;20049;-64
2022/11/13 11:17:58;;;;;;;8.90;5.93;;;21.80;44.10;;;;;;4990298;28;20520;-63
2022/11/13 11:20:45;;;;;;;6.95;5.60;;;21.80;44.10;;;;;;5004111;28;20558;-63
2022/11/13 11:23:26;;;;;;;6.97;5.35;;;21.80;44.10;;;;;;4993045;28;20534;-63
2022/11/13 11:25:57;;;;;;;6.88;5.68;;;21.80;44.20;;;;;;4994301;28;20065;-64
2022/11/13 11:28:46;;;;;;;6.50;5.15;;;21.80;44.10;;;;;;5011688;28;20049;-64
2022/11/13 11:31:51;;;;;;;6.60;5.70;;;21.80;44.10;;;;;;5010849;28;20050;-64
2022/11/13 11:34:37;;;;;;;7.18;5.40;;;21.90;44.20;;;;;;5011441;28;20053;-63
2022/11/13 11:37:14;;;;;;;7.35;5.60;;;21.90;44.20;;;;;;5011065;28;20057;-64
2022/11/13 11:39:58;;;;;;;5.25;4.40;;;21.90;44.20;;;;;;5011027;28;20053;-64
2022/11/13 11:42:44;;;;;;;7.72;5.85;;;21.90;44.30;;;;;;5010815;28;20050;-64
2022/11/13 11:45:20;;;;;;;6.63;5.70;;;21.90;44.30;;;;;;5011063;28;20042;-64
2022/11/13 11:47:47;;;;;;;5.63;4.63;;;21.90;44.20;;;;;;4993210;28;20133;-63
2022/11/13 11:50:22;;;;;;;5.45;4.95;;;21.90;44.20;;;;;;4988801;28;20052;-64
2022/11/13 11:53:02;;;;;;;7.00;5.03;;;21.90;44.20;;;;;;5011522;28;20085;-65
2022/11/13 11:55:55;;;;;;;9.90;5.10;;;21.90;44.20;;;;;;4994583;28;20118;-64
2022/11/13 11:58:58;;;;;;;6.72;5.47;;;22.00;44.20;;;;;;4997765;28;20057;-64
2022/11/13 12:01:52;;;;;;;6.47;5.30;;;22.00;44.20;;;;;;4996493;28;20488;-63
2022/11/13 12:04:50;;;;;;;7.72;4.70;;;22.00;44.10;;;;;;4999348;28;20045;-64
2022/11/13 12:07:51;;;;;;;6.60;5.22;;;22.00;44.00;;;;;;5030398;28;20095;-63
2022/11/13 12:10:57;;;;;;;7.03;5.45;;;22.00;44.00;;;;;;5030458;28;20042;-63
2022/11/13 12:13:31;;;;;;;7.38;5.55;;;22.00;44.00;;;;;;5030050;28;20049;-64
2022/11/13 12:16:24;;;;;;;7.90;5.75;;;22.00;44.00;;;;;;5030359;28;20060;-64
2022/11/13 12:19:05;;;;;;;8.80;5.45;;;22.00;43.90;;;;;;4995968;28;20056;-64
2022/11/13 12:22:11;;;;;;;7.63;5.15;;;22.00;43.90;;;;;;5010840;28;20049;-64
2022/11/13 12:25:13;;;;;;;6.97;5.70;;;22.10;43.90;;;;;;4980801;28;20201;-64
2022/11/13 12:27:58;;;;;;;7.43;5.95;;;22.10;43.90;;;;;;5009460;28;20049;-64
2022/11/13 12:30:46;;;;;;;6.40;5.18;;;22.10;43.90;;;;;;5009741;28;20065;-63
2022/11/13 12:33:43;;;;;;;8.52;6.05;;;22.10;43.90;;;;;;5010389;28;20057;-64
2022/11/13 12:36:12;;;;;;;8.13;6.15;;;22.10;43.90;;;;;;5010095;28;20041;-64
2022/11/13 12:39:09;;;;;;;7.35;5.38;;;22.10;43.90;;;;;;4992467;28;20463;-64
2022/11/13 12:41:52;;;;;;;6.57;5.38;;;22.10;44.50;;;;;;4995423;28;20053;-64
2022/11/13 12:44:25;;;;;;;7.30;5.50;;;22.10;43.90;;;;;;5009710;28;20056;-64
2022/11/13 12:46:53;;;;;;;6.18;5.00;;;22.10;43.90;;;;;;5010707;28;20423;-64
2022/11/13 12:49:32;;;;;;;6.65;5.18;;;22.10;43.90;;;;;;5009727;28;20056;-64
2022/11/13 12:52:16;;;;;;;7.45;5.72;;;22.10;43.90;;;;;;5010034;28;20488;-64
2022/11/13 12:54:44;;;;;;;5.85;5.05;;;22.10;43.90;;;;;;5007781;28;20048;-64
2022/11/13 12:57:23;;;;;;;7.47;5.72;;;22.10;43.90;;;;;;5006370;28;20600;-64
2022/11/13 13:00:09;;;;;;;6.90;5.55;;;22.10;43.90;;;;;;5009789;28;20046;-64
2022/11/13 13:03:09;;;;;;;8.38;5.82;;;22.10;43.90;;;;;;4992265;28;20057;-64
2022/11/13 13:06:11;;;;;;;7.43;5.88;;;22.10;43.90;;;;;;4991621;28;20045;-64
2022/11/13 13:09:04;;;;;;;7.35;5.90;;;22.10;43.90;;;;;;5009306;28;20049;-64
2022/11/13 13:11:53;;;;;;;8.35;6.55;;;22.10;43.90;;;;;;5009445;28;20488;-64
2022/11/13 13:14:45;;;;;;;7.40;6.10;;;22.10;43.90;;;;;;4993113;28;20041;-64